sensor_id;sensor_type;location;lat;lon;timestamp;P1;durP1;ratioP1;P2;durP2;ratioP2
25657;SDS011;13517;59.320;18.042;2023-08-06T00:00:22;13.82;;;6.30;;
25657;SDS011;13517;59.320;18.042;2023-08-06T00:02:48;11.52;;;6.25;;
25657;SDS011;13517;59.320;18.042;2023-08-06T00:05:14;16.25;;;6.30;;
25657;SDS011;13517;59.320;18.042;2023-08-06T00:07:46;12.85;;;6.03;;
25657;SDS011;13517;59.320;18.042;2023-08-06T00:10:12;11.95;;;5.63;;
25657;SDS011;13517;59.320;18.042;2023-08-06T00:12:38;15.38;;;6.78;;
25657;SDS011;13517;59.320;18.042;2023-08-06T00:15:03;14.20;;;6.00;;
25657;SDS011;13517;59.320;18.042;2023-08-06T00:17:29;12.13;;;5.53;;
25657;SDS011;13517;59.320;18.042;2023-08-06T00:19:54;18.77;;;5.88;;
25657;SDS011;13517;59.320;18.042;2023-08-06T00:22:20;17.08;;;6.57;;
25657;SDS011;13517;59.320;18.042;2023-08-06T00:24:45;12.65;;;5.88;;
25657;SDS011;13517;59.320;18.042;2023-08-06T00:27:10;12.48;;;5.82;;
25657;SDS011;13517;59.320;18.042;2023-08-06T00:29:36;13.68;;;6.25;;
25657;SDS011;13517;59.320;18.042;2023-08-06T00:32:01;10.80;;;5.57;;
25657;SDS011;13517;59.320;18.042;2023-08-06T00:34:27;9.45;;;5.55;;
25657;SDS011;13517;59.320;18.042;2023-08-06T00:36:52;16.35;;;6.40;;
25657;SDS011;13517;59.320;18.042;2023-08-06T00:39:18;12.73;;;6.15;;
25657;SDS011;13517;59.320;18.042;2023-08-06T00:41:44;10.60;;;5.53;;
25657;SDS011;13517;59.320;18.042;2023-08-06T00:44:09;12.82;;;6.07;;
25657;SDS011;13517;59.320;18.042;2023-08-06T00:46:35;21.08;;;6.45;;
25657;SDS011;13517;59.320;18.042;2023-08-06T00:49:00;12.65;;;5.68;;
25657;SDS011;13517;59.320;18.042;2023-08-06T00:51:26;12.88;;;6.03;;
25657;SDS011;13517;59.320;18.042;2023-08-06T00:53:52;13.35;;;5.97;;
25657;SDS011;13517;59.320;18.042;2023-08-06T00:56:18;15.10;;;5.97;;
25657;SDS011;13517;59.320;18.042;2023-08-06T00:58:44;10.48;;;6.00;;
25657;SDS011;13517;59.320;18.042;2023-08-06T01:01:10;12.77;;;6.10;;
25657;SDS011;13517;59.320;18.042;2023-08-06T01:03:36;10.60;;;6.38;;
25657;SDS011;13517;59.320;18.042;2023-08-06T01:06:01;13.85;;;6.38;;
25657;SDS011;13517;59.320;18.042;2023-08-06T01:16:11;17.05;;;7.35;;
25657;SDS011;13517;59.320;18.042;2023-08-06T01:18:40;15.50;;;6.43;;
25657;SDS011;13517;59.320;18.042;2023-08-06T01:21:07;17.35;;;6.72;;
25657;SDS011;13517;59.320;18.042;2023-08-06T01:23:32;14.75;;;7.47;;
25657;SDS011;13517;59.320;18.042;2023-08-06T01:31:24;17.38;;;6.72;;
25657;SDS011;13517;59.320;18.042;2023-08-06T01:33:55;14.68;;;7.13;;
25657;SDS011;13517;59.320;18.042;2023-08-06T01:36:23;13.68;;;6.97;;
25657;SDS011;13517;59.320;18.042;2023-08-06T01:38:48;17.30;;;7.25;;
25657;SDS011;13517;59.320;18.042;2023-08-06T01:41:16;11.85;;;6.93;;
25657;SDS011;13517;59.320;18.042;2023-08-06T01:43:42;13.10;;;6.82;;
25657;SDS011;13517;59.320;18.042;2023-08-06T01:46:07;16.63;;;7.78;;
25657;SDS011;13517;59.320;18.042;2023-08-06T01:48:33;17.55;;;7.65;;
25657;SDS011;13517;59.320;18.042;2023-08-06T01:50:58;15.65;;;8.02;;
25657;SDS011;13517;59.320;18.042;2023-08-06T01:53:23;13.20;;;6.55;;
25657;SDS011;13517;59.320;18.042;2023-08-06T01:55:49;13.20;;;7.32;;
25657;SDS011;13517;59.320;18.042;2023-08-06T01:58:15;15.20;;;7.15;;
25657;SDS011;13517;59.320;18.042;2023-08-06T02:00:40;11.50;;;6.72;;
25657;SDS011;13517;59.320;18.042;2023-08-06T02:03:06;16.58;;;6.80;;
25657;SDS011;13517;59.320;18.042;2023-08-06T02:05:31;17.73;;;8.25;;
25657;SDS011;13517;59.320;18.042;2023-08-06T02:07:57;13.93;;;7.80;;
25657;SDS011;13517;59.320;18.042;2023-08-06T02:10:22;14.13;;;7.10;;
25657;SDS011;13517;59.320;18.042;2023-08-06T02:12:48;13.52;;;7.65;;
25657;SDS011;13517;59.320;18.042;2023-08-06T02:15:13;14.55;;;7.63;;
25657;SDS011;13517;59.320;18.042;2023-08-06T02:17:39;14.80;;;7.50;;
25657;SDS011;13517;59.320;18.042;2023-08-06T02:20:04;13.05;;;7.55;;
25657;SDS011;13517;59.320;18.042;2023-08-06T02:22:30;16.98;;;8.25;;
25657;SDS011;13517;59.320;18.042;2023-08-06T02:24:56;15.60;;;7.20;;
25657;SDS011;13517;59.320;18.042;2023-08-06T02:27:21;15.40;;;7.78;;
25657;SDS011;13517;59.320;18.042;2023-08-06T02:29:46;15.65;;;7.03;;
25657;SDS011;13517;59.320;18.042;2023-08-06T02:32:12;16.52;;;7.00;;
25657;SDS011;13517;59.320;18.042;2023-08-06T02:34:37;10.52;;;7.22;;
25657;SDS011;13517;59.320;18.042;2023-08-06T02:37:03;15.23;;;7.30;;
25657;SDS011;13517;59.320;18.042;2023-08-06T02:39:28;14.15;;;7.03;;
25657;SDS011;13517;59.320;18.042;2023-08-06T02:41:54;17.40;;;8.27;;
25657;SDS011;13517;59.320;18.042;2023-08-06T02:44:19;18.98;;;6.85;;
25657;SDS011;13517;59.320;18.042;2023-08-06T02:46:44;13.73;;;6.72;;
25657;SDS011;13517;59.320;18.042;2023-08-06T02:49:10;14.80;;;7.05;;
25657;SDS011;13517;59.320;18.042;2023-08-06T02:51:36;13.63;;;7.22;;
25657;SDS011;13517;59.320;18.042;2023-08-06T02:54:01;16.48;;;8.57;;
25657;SDS011;13517;59.320;18.042;2023-08-06T02:56:26;12.40;;;7.65;;
25657;SDS011;13517;59.320;18.042;2023-08-06T02:58:52;18.55;;;7.97;;
25657;SDS011;13517;59.320;18.042;2023-08-06T03:01:17;17.23;;;7.85;;
25657;SDS011;13517;59.320;18.042;2023-08-06T03:03:43;13.90;;;7.43;;
25657;SDS011;13517;59.320;18.042;2023-08-06T03:06:08;12.98;;;7.25;;
25657;SDS011;13517;59.320;18.042;2023-08-06T03:08:33;15.52;;;7.50;;
25657;SDS011;13517;59.320;18.042;2023-08-06T03:10:59;15.13;;;7.60;;
25657;SDS011;13517;59.320;18.042;2023-08-06T03:13:24;14.68;;;7.53;;
25657;SDS011;13517;59.320;18.042;2023-08-06T03:15:57;12.77;;;7.50;;
25657;SDS011;13517;59.320;18.042;2023-08-06T03:18:23;15.27;;;7.03;;
25657;SDS011;13517;59.320;18.042;2023-08-06T03:20:50;13.25;;;6.95;;
25657;SDS011;13517;59.320;18.042;2023-08-06T03:23:16;15.57;;;8.15;;
25657;SDS011;13517;59.320;18.042;2023-08-06T03:25:42;11.07;;;7.05;;
25657;SDS011;13517;59.320;18.042;2023-08-06T03:28:07;17.98;;;7.90;;
25657;SDS011;13517;59.320;18.042;2023-08-06T03:30:33;17.52;;;7.93;;
25657;SDS011;13517;59.320;18.042;2023-08-06T03:32:58;12.50;;;7.30;;
25657;SDS011;13517;59.320;18.042;2023-08-06T03:35:23;13.80;;;7.28;;
25657;SDS011;13517;59.320;18.042;2023-08-06T03:37:49;12.88;;;6.32;;
25657;SDS011;13517;59.320;18.042;2023-08-06T03:40:15;10.90;;;7.05;;
25657;SDS011;13517;59.320;18.042;2023-08-06T03:42:40;15.40;;;7.03;;
25657;SDS011;13517;59.320;18.042;2023-08-06T03:45:06;14.50;;;6.78;;
25657;SDS011;13517;59.320;18.042;2023-08-06T03:47:32;17.13;;;8.27;;
25657;SDS011;13517;59.320;18.042;2023-08-06T03:49:57;11.57;;;7.97;;
25657;SDS011;13517;59.320;18.042;2023-08-06T03:52:23;20.25;;;8.15;;
25657;SDS011;13517;59.320;18.042;2023-08-06T03:54:48;17.10;;;7.93;;
25657;SDS011;13517;59.320;18.042;2023-08-06T03:57:14;18.23;;;7.70;;
25657;SDS011;13517;59.320;18.042;2023-08-06T03:59:39;13.10;;;8.07;;
25657;SDS011;13517;59.320;18.042;2023-08-06T04:02:04;16.55;;;8.68;;
25657;SDS011;13517;59.320;18.042;2023-08-06T04:04:30;17.05;;;7.72;;
25657;SDS011;13517;59.320;18.042;2023-08-06T04:06:55;14.82;;;6.97;;
25657;SDS011;13517;59.320;18.042;2023-08-06T04:09:21;16.15;;;7.35;;
25657;SDS011;13517;59.320;18.042;2023-08-06T04:11:46;14.45;;;6.90;;
25657;SDS011;13517;59.320;18.042;2023-08-06T04:14:12;13.52;;;7.78;;
25657;SDS011;13517;59.320;18.042;2023-08-06T04:16:37;14.13;;;6.72;;
25657;SDS011;13517;59.320;18.042;2023-08-06T04:19:02;13.32;;;6.43;;
25657;SDS011;13517;59.320;18.042;2023-08-06T04:21:28;17.00;;;6.85;;
25657;SDS011;13517;59.320;18.042;2023-08-06T04:23:53;14.18;;;6.35;;
25657;SDS011;13517;59.320;18.042;2023-08-06T04:26:19;16.08;;;7.03;;
25657;SDS011;13517;59.320;18.042;2023-08-06T04:28:44;12.80;;;7.25;;
25657;SDS011;13517;59.320;18.042;2023-08-06T04:31:09;11.27;;;6.40;;
25657;SDS011;13517;59.320;18.042;2023-08-06T04:33:35;12.70;;;7.10;;
25657;SDS011;13517;59.320;18.042;2023-08-06T04:36:00;17.27;;;6.72;;
25657;SDS011;13517;59.320;18.042;2023-08-06T04:38:26;12.98;;;6.50;;
25657;SDS011;13517;59.320;18.042;2023-08-06T04:40:52;13.85;;;7.00;;
25657;SDS011;13517;59.320;18.042;2023-08-06T04:43:17;20.45;;;6.57;;
25657;SDS011;13517;59.320;18.042;2023-08-06T04:45:50;15.25;;;7.05;;
25657;SDS011;13517;59.320;18.042;2023-08-06T04:48:16;13.23;;;6.63;;
25657;SDS011;13517;59.320;18.042;2023-08-06T04:50:43;14.85;;;6.50;;
25657;SDS011;13517;59.320;18.042;2023-08-06T04:53:09;10.13;;;6.82;;
25657;SDS011;13517;59.320;18.042;2023-08-06T04:55:35;12.63;;;6.68;;
25657;SDS011;13517;59.320;18.042;2023-08-06T04:58:00;13.80;;;6.53;;
25657;SDS011;13517;59.320;18.042;2023-08-06T05:00:25;8.20;;;5.57;;
25657;SDS011;13517;59.320;18.042;2023-08-06T05:02:51;12.07;;;6.32;;
25657;SDS011;13517;59.320;18.042;2023-08-06T05:05:16;16.67;;;6.07;;
25657;SDS011;13517;59.320;18.042;2023-08-06T05:07:42;12.18;;;6.22;;
25657;SDS011;13517;59.320;18.042;2023-08-06T05:10:07;14.55;;;5.97;;
25657;SDS011;13517;59.320;18.042;2023-08-06T05:12:33;12.80;;;6.25;;
25657;SDS011;13517;59.320;18.042;2023-08-06T05:14:58;12.52;;;6.40;;
25657;SDS011;13517;59.320;18.042;2023-08-06T05:17:23;12.13;;;6.32;;
25657;SDS011;13517;59.320;18.042;2023-08-06T05:19:49;14.38;;;6.15;;
25657;SDS011;13517;59.320;18.042;2023-08-06T05:22:14;11.85;;;5.30;;
25657;SDS011;13517;59.320;18.042;2023-08-06T05:24:40;12.20;;;5.18;;
25657;SDS011;13517;59.320;18.042;2023-08-06T05:27:05;16.95;;;6.65;;
25657;SDS011;13517;59.320;18.042;2023-08-06T05:29:31;11.57;;;6.57;;
25657;SDS011;13517;59.320;18.042;2023-08-06T05:31:56;12.00;;;6.00;;
25657;SDS011;13517;59.320;18.042;2023-08-06T05:34:21;13.30;;;5.85;;
25657;SDS011;13517;59.320;18.042;2023-08-06T05:36:47;9.70;;;5.30;;
25657;SDS011;13517;59.320;18.042;2023-08-06T05:39:12;10.27;;;5.38;;
25657;SDS011;13517;59.320;18.042;2023-08-06T05:41:38;9.73;;;5.35;;
25657;SDS011;13517;59.320;18.042;2023-08-06T05:44:03;9.23;;;4.32;;
25657;SDS011;13517;59.320;18.042;2023-08-06T05:46:29;14.60;;;5.10;;
25657;SDS011;13517;59.320;18.042;2023-08-06T05:48:54;10.48;;;4.75;;
25657;SDS011;13517;59.320;18.042;2023-08-06T05:51:21;10.77;;;4.78;;
25657;SDS011;13517;59.320;18.042;2023-08-06T05:53:46;8.63;;;4.70;;
25657;SDS011;13517;59.320;18.042;2023-08-06T05:56:12;13.05;;;4.68;;
25657;SDS011;13517;59.320;18.042;2023-08-06T05:58:37;9.93;;;4.32;;
25657;SDS011;13517;59.320;18.042;2023-08-06T06:01:03;7.80;;;3.80;;
25657;SDS011;13517;59.320;18.042;2023-08-06T06:03:28;12.30;;;4.45;;
25657;SDS011;13517;59.320;18.042;2023-08-06T06:05:53;9.75;;;4.50;;
25657;SDS011;13517;59.320;18.042;2023-08-06T06:08:19;7.18;;;4.18;;
25657;SDS011;13517;59.320;18.042;2023-08-06T06:10:44;5.97;;;4.03;;
25657;SDS011;13517;59.320;18.042;2023-08-06T06:13:10;8.63;;;4.25;;
25657;SDS011;13517;59.320;18.042;2023-08-06T06:15:35;9.55;;;4.13;;
25657;SDS011;13517;59.320;18.042;2023-08-06T06:18:00;10.95;;;4.40;;
25657;SDS011;13517;59.320;18.042;2023-08-06T06:20:26;8.23;;;3.90;;
25657;SDS011;13517;59.320;18.042;2023-08-06T06:22:51;7.70;;;4.10;;
25657;SDS011;13517;59.320;18.042;2023-08-06T06:25:17;7.35;;;3.90;;
25657;SDS011;13517;59.320;18.042;2023-08-06T06:27:42;10.20;;;4.25;;
25657;SDS011;13517;59.320;18.042;2023-08-06T06:30:08;10.43;;;3.92;;
25657;SDS011;13517;59.320;18.042;2023-08-06T06:32:33;6.53;;;3.72;;
25657;SDS011;13517;59.320;18.042;2023-08-06T06:34:59;9.70;;;3.78;;
25657;SDS011;13517;59.320;18.042;2023-08-06T06:37:25;7.60;;;3.97;;
25657;SDS011;13517;59.320;18.042;2023-08-06T06:39:50;10.23;;;4.45;;
25657;SDS011;13517;59.320;18.042;2023-08-06T06:42:15;8.43;;;3.70;;
25657;SDS011;13517;59.320;18.042;2023-08-06T06:44:41;6.22;;;4.10;;
25657;SDS011;13517;59.320;18.042;2023-08-06T06:47:07;6.82;;;4.15;;
25657;SDS011;13517;59.320;18.042;2023-08-06T06:49:32;6.20;;;4.10;;
25657;SDS011;13517;59.320;18.042;2023-08-06T06:51:57;6.43;;;4.32;;
25657;SDS011;13517;59.320;18.042;2023-08-06T06:54:23;6.10;;;3.63;;
25657;SDS011;13517;59.320;18.042;2023-08-06T06:56:48;5.18;;;3.70;;
25657;SDS011;13517;59.320;18.042;2023-08-06T06:59:15;7.68;;;3.53;;
25657;SDS011;13517;59.320;18.042;2023-08-06T07:01:40;7.65;;;3.45;;
25657;SDS011;13517;59.320;18.042;2023-08-06T07:04:06;7.13;;;3.22;;
25657;SDS011;13517;59.320;18.042;2023-08-06T07:06:31;13.13;;;3.65;;
25657;SDS011;13517;59.320;18.042;2023-08-06T07:08:57;6.15;;;3.40;;
25657;SDS011;13517;59.320;18.042;2023-08-06T07:11:23;9.32;;;4.00;;
25657;SDS011;13517;59.320;18.042;2023-08-06T07:13:49;11.23;;;4.00;;
25657;SDS011;13517;59.320;18.042;2023-08-06T07:16:15;6.03;;;3.30;;
25657;SDS011;13517;59.320;18.042;2023-08-06T07:18:40;9.95;;;3.78;;
25657;SDS011;13517;59.320;18.042;2023-08-06T07:21:06;7.60;;;3.83;;
25657;SDS011;13517;59.320;18.042;2023-08-06T07:23:31;7.63;;;3.60;;
25657;SDS011;13517;59.320;18.042;2023-08-06T07:25:57;7.72;;;3.72;;
25657;SDS011;13517;59.320;18.042;2023-08-06T07:28:22;6.43;;;3.83;;
25657;SDS011;13517;59.320;18.042;2023-08-06T07:30:47;5.07;;;3.65;;
25657;SDS011;13517;59.320;18.042;2023-08-06T07:33:13;8.15;;;3.47;;
25657;SDS011;13517;59.320;18.042;2023-08-06T07:35:38;8.25;;;3.50;;
25657;SDS011;13517;59.320;18.042;2023-08-06T07:38:04;7.13;;;3.47;;
25657;SDS011;13517;59.320;18.042;2023-08-06T07:40:29;7.30;;;3.22;;
25657;SDS011;13517;59.320;18.042;2023-08-06T07:42:55;7.50;;;3.30;;
25657;SDS011;13517;59.320;18.042;2023-08-06T07:45:20;7.97;;;3.30;;
25657;SDS011;13517;59.320;18.042;2023-08-06T07:47:46;8.50;;;3.67;;
25657;SDS011;13517;59.320;18.042;2023-08-06T07:50:12;9.25;;;3.72;;
25657;SDS011;13517;59.320;18.042;2023-08-06T07:52:38;6.57;;;3.70;;
25657;SDS011;13517;59.320;18.042;2023-08-06T07:55:03;8.93;;;3.67;;
25657;SDS011;13517;59.320;18.042;2023-08-06T07:57:32;8.18;;;3.17;;
25657;SDS011;13517;59.320;18.042;2023-08-06T07:59:59;10.38;;;3.50;;
25657;SDS011;13517;59.320;18.042;2023-08-06T08:02:25;6.03;;;3.50;;
25657;SDS011;13517;59.320;18.042;2023-08-06T08:04:51;7.68;;;3.22;;
25657;SDS011;13517;59.320;18.042;2023-08-06T08:07:16;9.93;;;3.80;;
25657;SDS011;13517;59.320;18.042;2023-08-06T08:09:42;7.55;;;4.22;;
25657;SDS011;13517;59.320;18.042;2023-08-06T08:12:07;8.18;;;4.15;;
25657;SDS011;13517;59.320;18.042;2023-08-06T08:14:32;7.82;;;3.40;;
25657;SDS011;13517;59.320;18.042;2023-08-06T08:17:04;7.40;;;3.38;;
25657;SDS011;13517;59.320;18.042;2023-08-06T08:19:30;10.18;;;4.28;;
25657;SDS011;13517;59.320;18.042;2023-08-06T08:21:56;9.27;;;3.97;;
25657;SDS011;13517;59.320;18.042;2023-08-06T08:24:22;9.90;;;3.97;;
25657;SDS011;13517;59.320;18.042;2023-08-06T08:26:50;7.82;;;3.47;;
25657;SDS011;13517;59.320;18.042;2023-08-06T08:29:16;9.88;;;3.60;;
25657;SDS011;13517;59.320;18.042;2023-08-06T08:31:41;8.05;;;3.53;;
25657;SDS011;13517;59.320;18.042;2023-08-06T08:34:08;7.20;;;3.38;;
25657;SDS011;13517;59.320;18.042;2023-08-06T08:36:34;8.40;;;3.60;;
25657;SDS011;13517;59.320;18.042;2023-08-06T08:38:59;8.80;;;3.80;;
25657;SDS011;13517;59.320;18.042;2023-08-06T08:41:25;5.45;;;3.30;;
25657;SDS011;13517;59.320;18.042;2023-08-06T08:43:53;8.10;;;3.20;;
25657;SDS011;13517;59.320;18.042;2023-08-06T08:46:19;9.77;;;3.47;;
25657;SDS011;13517;59.320;18.042;2023-08-06T08:48:44;8.40;;;2.90;;
25657;SDS011;13517;59.320;18.042;2023-08-06T08:51:11;13.00;;;3.30;;
25657;SDS011;13517;59.320;18.042;2023-08-06T08:53:38;6.85;;;3.53;;
25657;SDS011;13517;59.320;18.042;2023-08-06T08:56:04;8.02;;;3.30;;
25657;SDS011;13517;59.320;18.042;2023-08-06T08:58:30;9.25;;;3.25;;
25657;SDS011;13517;59.320;18.042;2023-08-06T09:00:56;8.20;;;3.47;;
25657;SDS011;13517;59.320;18.042;2023-08-06T09:03:22;9.52;;;3.38;;
25657;SDS011;13517;59.320;18.042;2023-08-06T09:05:49;12.70;;;3.90;;
25657;SDS011;13517;59.320;18.042;2023-08-06T09:08:18;8.40;;;3.40;;
25657;SDS011;13517;59.320;18.042;2023-08-06T09:10:49;9.55;;;3.53;;
25657;SDS011;13517;59.320;18.042;2023-08-06T09:13:17;6.05;;;3.85;;
25657;SDS011;13517;59.320;18.042;2023-08-06T09:15:42;6.90;;;3.55;;
25657;SDS011;13517;59.320;18.042;2023-08-06T09:18:12;6.10;;;3.47;;
25657;SDS011;13517;59.320;18.042;2023-08-06T09:20:38;8.48;;;3.92;;
25657;SDS011;13517;59.320;18.042;2023-08-06T09:23:08;8.27;;;4.03;;
25657;SDS011;13517;59.320;18.042;2023-08-06T09:25:40;9.23;;;3.72;;
25657;SDS011;13517;59.320;18.042;2023-08-06T09:28:05;8.73;;;3.95;;
25657;SDS011;13517;59.320;18.042;2023-08-06T09:30:33;12.93;;;4.15;;
25657;SDS011;13517;59.320;18.042;2023-08-06T09:33:02;10.68;;;3.92;;
25657;SDS011;13517;59.320;18.042;2023-08-06T09:35:29;8.82;;;3.67;;
25657;SDS011;13517;59.320;18.042;2023-08-06T09:37:55;8.15;;;3.17;;
25657;SDS011;13517;59.320;18.042;2023-08-06T09:40:32;8.45;;;3.72;;
25657;SDS011;13517;59.320;18.042;2023-08-06T09:42:58;13.02;;;4.03;;
25657;SDS011;13517;59.320;18.042;2023-08-06T09:45:28;9.27;;;3.35;;
25657;SDS011;13517;59.320;18.042;2023-08-06T09:47:55;8.25;;;3.58;;
25657;SDS011;13517;59.320;18.042;2023-08-06T09:50:21;7.95;;;3.70;;
25657;SDS011;13517;59.320;18.042;2023-08-06T09:52:48;6.07;;;3.50;;
25657;SDS011;13517;59.320;18.042;2023-08-06T09:55:15;8.45;;;4.03;;
25657;SDS011;13517;59.320;18.042;2023-08-06T09:57:41;11.48;;;3.95;;
25657;SDS011;13517;59.320;18.042;2023-08-06T10:00:07;8.23;;;3.45;;
25657;SDS011;13517;59.320;18.042;2023-08-06T10:02:40;11.52;;;4.35;;
25657;SDS011;13517;59.320;18.042;2023-08-06T10:05:09;16.60;;;4.10;;
25657;SDS011;13517;59.320;18.042;2023-08-06T10:07:35;9.63;;;3.75;;
25657;SDS011;13517;59.320;18.042;2023-08-06T10:10:00;6.65;;;3.95;;
25657;SDS011;13517;59.320;18.042;2023-08-06T10:12:28;11.30;;;3.83;;
25657;SDS011;13517;59.320;18.042;2023-08-06T10:14:58;10.18;;;3.90;;
25657;SDS011;13517;59.320;18.042;2023-08-06T10:17:26;9.68;;;3.90;;
25657;SDS011;13517;59.320;18.042;2023-08-06T10:19:53;10.50;;;3.65;;
25657;SDS011;13517;59.320;18.042;2023-08-06T10:22:21;9.65;;;4.18;;
25657;SDS011;13517;59.320;18.042;2023-08-06T10:24:57;7.15;;;4.10;;
25657;SDS011;13517;59.320;18.042;2023-08-06T10:27:29;8.52;;;3.50;;
25657;SDS011;13517;59.320;18.042;2023-08-06T10:32:49;12.73;;;4.13;;
25657;SDS011;13517;59.320;18.042;2023-08-06T10:38:09;10.10;;;3.83;;
25657;SDS011;13517;59.320;18.042;2023-08-06T10:40:52;11.80;;;4.68;;
25657;SDS011;13517;59.320;18.042;2023-08-06T10:43:31;10.15;;;4.72;;
25657;SDS011;13517;59.320;18.042;2023-08-06T10:45:58;11.35;;;4.70;;
25657;SDS011;13517;59.320;18.042;2023-08-06T10:48:34;13.93;;;4.72;;
25657;SDS011;13517;59.320;18.042;2023-08-06T10:51:09;12.25;;;4.72;;
25657;SDS011;13517;59.320;18.042;2023-08-06T10:53:37;9.68;;;4.35;;
25657;SDS011;13517;59.320;18.042;2023-08-06T10:56:16;10.18;;;4.35;;
25657;SDS011;13517;59.320;18.042;2023-08-06T10:58:43;11.70;;;4.63;;
25657;SDS011;13517;59.320;18.042;2023-08-06T11:01:10;11.55;;;4.82;;
25657;SDS011;13517;59.320;18.042;2023-08-06T11:03:36;6.38;;;4.00;;
25657;SDS011;13517;59.320;18.042;2023-08-06T11:06:02;8.07;;;4.78;;
25657;SDS011;13517;59.320;18.042;2023-08-06T11:08:29;8.95;;;4.82;;
25657;SDS011;13517;59.320;18.042;2023-08-06T11:11:08;12.30;;;4.82;;
25657;SDS011;13517;59.320;18.042;2023-08-06T11:13:36;18.02;;;5.72;;
25657;SDS011;13517;59.320;18.042;2023-08-06T11:16:03;14.23;;;6.10;;
25657;SDS011;13517;59.320;18.042;2023-08-06T11:18:29;19.25;;;7.75;;
25657;SDS011;13517;59.320;18.042;2023-08-06T11:20:54;15.30;;;6.35;;
25657;SDS011;13517;59.320;18.042;2023-08-06T11:23:20;17.05;;;6.28;;
25657;SDS011;13517;59.320;18.042;2023-08-06T11:25:45;13.10;;;6.80;;
25657;SDS011;13517;59.320;18.042;2023-08-06T11:28:11;15.63;;;7.43;;
25657;SDS011;13517;59.320;18.042;2023-08-06T11:30:37;14.02;;;7.05;;
25657;SDS011;13517;59.320;18.042;2023-08-06T11:33:03;17.73;;;7.55;;
25657;SDS011;13517;59.320;18.042;2023-08-06T11:35:33;16.20;;;8.10;;
25657;SDS011;13517;59.320;18.042;2023-08-06T11:38:00;18.65;;;8.52;;
25657;SDS011;13517;59.320;18.042;2023-08-06T11:40:25;15.93;;;8.00;;
25657;SDS011;13517;59.320;18.042;2023-08-06T11:42:51;15.57;;;8.60;;
25657;SDS011;13517;59.320;18.042;2023-08-06T11:45:16;15.65;;;8.48;;
25657;SDS011;13517;59.320;18.042;2023-08-06T11:47:42;21.70;;;10.27;;
25657;SDS011;13517;59.320;18.042;2023-08-06T11:50:21;17.30;;;8.87;;
25657;SDS011;13517;59.320;18.042;2023-08-06T11:52:52;24.02;;;9.57;;
25657;SDS011;13517;59.320;18.042;2023-08-06T11:55:22;14.18;;;9.00;;
25657;SDS011;13517;59.320;18.042;2023-08-06T11:57:49;20.58;;;10.80;;
25657;SDS011;13517;59.320;18.042;2023-08-06T12:00:14;19.45;;;11.32;;
25657;SDS011;13517;59.320;18.042;2023-08-06T12:02:42;24.98;;;10.90;;
25657;SDS011;13517;59.320;18.042;2023-08-06T12:07:38;21.13;;;10.80;;
25657;SDS011;13517;59.320;18.042;2023-08-06T12:10:07;22.92;;;10.95;;
25657;SDS011;13517;59.320;18.042;2023-08-06T12:12:33;21.73;;;11.85;;
25657;SDS011;13517;59.320;18.042;2023-08-06T12:15:00;25.88;;;12.43;;
25657;SDS011;13517;59.320;18.042;2023-08-06T12:17:25;20.40;;;11.48;;
25657;SDS011;13517;59.320;18.042;2023-08-06T12:19:51;19.88;;;11.57;;
25657;SDS011;13517;59.320;18.042;2023-08-06T12:22:17;18.98;;;11.70;;
25657;SDS011;13517;59.320;18.042;2023-08-06T12:24:43;20.10;;;12.55;;
25657;SDS011;13517;59.320;18.042;2023-08-06T12:27:09;23.52;;;13.07;;
25657;SDS011;13517;59.320;18.042;2023-08-06T12:29:35;28.08;;;13.27;;
25657;SDS011;13517;59.320;18.042;2023-08-06T12:32:02;23.75;;;13.88;;
25657;SDS011;13517;59.320;18.042;2023-08-06T12:34:37;24.35;;;13.82;;
25657;SDS011;13517;59.320;18.042;2023-08-06T12:37:03;27.90;;;12.48;;
25657;SDS011;13517;59.320;18.042;2023-08-06T12:39:32;23.52;;;13.02;;
25657;SDS011;13517;59.320;18.042;2023-08-06T12:41:58;21.67;;;13.32;;
25657;SDS011;13517;59.320;18.042;2023-08-06T12:44:24;20.15;;;12.25;;
25657;SDS011;13517;59.320;18.042;2023-08-06T12:46:53;21.20;;;13.20;;
25657;SDS011;13517;59.320;18.042;2023-08-06T12:49:18;24.75;;;13.80;;
25657;SDS011;13517;59.320;18.042;2023-08-06T12:51:46;32.85;;;14.00;;
25657;SDS011;13517;59.320;18.042;2023-08-06T12:54:12;27.40;;;14.30;;
25657;SDS011;13517;59.320;18.042;2023-08-06T12:56:37;24.05;;;13.85;;
25657;SDS011;13517;59.320;18.042;2023-08-06T12:59:03;21.27;;;12.23;;
25657;SDS011;13517;59.320;18.042;2023-08-06T13:01:28;22.83;;;12.88;;
25657;SDS011;13517;59.320;18.042;2023-08-06T13:03:53;25.92;;;13.90;;
25657;SDS011;13517;59.320;18.042;2023-08-06T13:06:19;22.50;;;12.55;;
25657;SDS011;13517;59.320;18.042;2023-08-06T13:08:44;21.17;;;13.25;;
25657;SDS011;13517;59.320;18.042;2023-08-06T13:11:10;33.40;;;13.70;;
25657;SDS011;13517;59.320;18.042;2023-08-06T13:13:35;26.10;;;12.93;;
25657;SDS011;13517;59.320;18.042;2023-08-06T13:16:01;27.63;;;12.50;;
25657;SDS011;13517;59.320;18.042;2023-08-06T13:18:26;21.27;;;12.40;;
25657;SDS011;13517;59.320;18.042;2023-08-06T13:20:53;17.20;;;12.15;;
25657;SDS011;13517;59.320;18.042;2023-08-06T13:23:19;24.85;;;12.35;;
25657;SDS011;13517;59.320;18.042;2023-08-06T13:25:45;19.20;;;11.82;;
25657;SDS011;13517;59.320;18.042;2023-08-06T13:28:10;23.02;;;13.80;;
25657;SDS011;13517;59.320;18.042;2023-08-06T13:30:36;21.15;;;12.80;;
25657;SDS011;13517;59.320;18.042;2023-08-06T13:33:06;25.63;;;12.30;;
25657;SDS011;13517;59.320;18.042;2023-08-06T13:35:35;22.08;;;12.70;;
25657;SDS011;13517;59.320;18.042;2023-08-06T13:38:01;22.98;;;12.95;;
25657;SDS011;13517;59.320;18.042;2023-08-06T13:40:32;23.42;;;11.70;;
25657;SDS011;13517;59.320;18.042;2023-08-06T13:42:59;18.17;;;10.88;;
25657;SDS011;13517;59.320;18.042;2023-08-06T13:45:25;19.92;;;11.43;;
25657;SDS011;13517;59.320;18.042;2023-08-06T13:47:50;18.33;;;11.68;;
25657;SDS011;13517;59.320;18.042;2023-08-06T13:50:16;17.65;;;11.90;;
25657;SDS011;13517;59.320;18.042;2023-08-06T13:52:42;24.88;;;13.23;;
25657;SDS011;13517;59.320;18.042;2023-08-06T13:55:07;26.35;;;13.25;;
25657;SDS011;13517;59.320;18.042;2023-08-06T13:57:36;27.13;;;13.90;;
25657;SDS011;13517;59.320;18.042;2023-08-06T14:00:02;31.13;;;14.15;;
25657;SDS011;13517;59.320;18.042;2023-08-06T14:02:28;26.52;;;14.30;;
25657;SDS011;13517;59.320;18.042;2023-08-06T14:04:54;25.45;;;14.50;;
25657;SDS011;13517;59.320;18.042;2023-08-06T14:07:19;23.15;;;14.80;;
25657;SDS011;13517;59.320;18.042;2023-08-06T14:09:45;26.58;;;14.05;;
25657;SDS011;13517;59.320;18.042;2023-08-06T14:12:12;36.25;;;15.95;;
25657;SDS011;13517;59.320;18.042;2023-08-06T14:14:37;26.77;;;15.60;;
25657;SDS011;13517;59.320;18.042;2023-08-06T14:17:03;23.75;;;14.35;;
25657;SDS011;13517;59.320;18.042;2023-08-06T14:19:28;28.33;;;14.23;;
25657;SDS011;13517;59.320;18.042;2023-08-06T14:21:54;24.42;;;14.43;;
25657;SDS011;13517;59.320;18.042;2023-08-06T14:24:20;25.52;;;15.07;;
25657;SDS011;13517;59.320;18.042;2023-08-06T14:26:46;23.15;;;13.95;;
25657;SDS011;13517;59.320;18.042;2023-08-06T14:29:12;23.75;;;14.45;;
25657;SDS011;13517;59.320;18.042;2023-08-06T14:31:39;25.27;;;14.38;;
25657;SDS011;13517;59.320;18.042;2023-08-06T14:34:04;25.67;;;13.65;;
25657;SDS011;13517;59.320;18.042;2023-08-06T14:36:31;23.80;;;14.40;;
25657;SDS011;13517;59.320;18.042;2023-08-06T14:38:57;21.45;;;13.77;;